sensor_id;sensor_type;location;lat;lon;timestamp;P1;durP1;ratioP1;P2;durP2;ratioP2
4652;SDS011;9900;48.738;9.306;2022-08-19T00:01:56;13.60;;;12.00;;
4652;SDS011;9900;48.738;9.306;2022-08-19T00:04:27;14.70;;;12.20;;
4652;SDS011;9900;48.738;9.306;2022-08-19T00:06:59;14.80;;;13.17;;
4652;SDS011;9900;48.738;9.306;2022-08-19T00:09:28;17.73;;;12.70;;
4652;SDS011;9900;48.738;9.306;2022-08-19T00:11:57;16.63;;;12.37;;
4652;SDS011;9900;48.738;9.306;2022-08-19T00:14:27;14.23;;;12.40;;
4652;SDS011;9900;48.738;9.306;2022-08-19T00:16:59;16.80;;;13.20;;
4652;SDS011;9900;48.738;9.306;2022-08-19T00:19:30;21.00;;;12.37;;
4652;SDS011;9900;48.738;9.306;2022-08-19T00:22:01;15.20;;;12.67;;
4652;SDS011;9900;48.738;9.306;2022-08-19T00:24:30;15.60;;;13.50;;
4652;SDS011;9900;48.738;9.306;2022-08-19T00:27:00;15.77;;;12.90;;
4652;SDS011;9900;48.738;9.306;2022-08-19T00:29:49;17.60;;;14.40;;
4652;SDS011;9900;48.738;9.306;2022-08-19T00:32:19;17.20;;;13.13;;
4652;SDS011;9900;48.738;9.306;2022-08-19T00:34:50;17.37;;;13.67;;
4652;SDS011;9900;48.738;9.306;2022-08-19T00:37:22;16.87;;;14.20;;
4652;SDS011;9900;48.738;9.306;2022-08-19T00:39:53;18.10;;;13.10;;
4652;SDS011;9900;48.738;9.306;2022-08-19T00:42:23;22.30;;;14.70;;
4652;SDS011;9900;48.738;9.306;2022-08-19T00:44:55;15.33;;;12.63;;
4652;SDS011;9900;48.738;9.306;2022-08-19T00:47:24;16.00;;;14.30;;
4652;SDS011;9900;48.738;9.306;2022-08-19T00:49:55;18.43;;;14.07;;
4652;SDS011;9900;48.738;9.306;2022-08-19T00:52:28;15.87;;;13.40;;
4652;SDS011;9900;48.738;9.306;2022-08-19T00:54:59;16.20;;;14.10;;
4652;SDS011;9900;48.738;9.306;2022-08-19T00:57:29;22.83;;;14.63;;
4652;SDS011;9900;48.738;9.306;2022-08-19T00:59:59;16.80;;;14.40;;
4652;SDS011;9900;48.738;9.306;2022-08-19T01:02:30;16.87;;;13.83;;
4652;SDS011;9900;48.738;9.306;2022-08-19T01:05:01;19.00;;;13.60;;
4652;SDS011;9900;48.738;9.306;2022-08-19T01:07:33;18.27;;;14.90;;
4652;SDS011;9900;48.738;9.306;2022-08-19T01:10:05;15.37;;;13.50;;
4652;SDS011;9900;48.738;9.306;2022-08-19T01:12:36;20.93;;;14.00;;
4652;SDS011;9900;48.738;9.306;2022-08-19T01:15:06;23.03;;;14.63;;
4652;SDS011;9900;48.738;9.306;2022-08-19T01:17:38;17.33;;;14.50;;
4652;SDS011;9900;48.738;9.306;2022-08-19T01:20:10;19.47;;;14.30;;
4652;SDS011;9900;48.738;9.306;2022-08-19T01:22:43;17.40;;;14.33;;
4652;SDS011;9900;48.738;9.306;2022-08-19T01:25:13;18.00;;;13.80;;
4652;SDS011;9900;48.738;9.306;2022-08-19T01:27:44;17.47;;;13.77;;
4652;SDS011;9900;48.738;9.306;2022-08-19T01:30:16;14.43;;;12.50;;
4652;SDS011;9900;48.738;9.306;2022-08-19T01:32:48;17.97;;;13.63;;
4652;SDS011;9900;48.738;9.306;2022-08-19T01:35:18;15.27;;;13.03;;
4652;SDS011;9900;48.738;9.306;2022-08-19T01:37:50;15.07;;;12.97;;
4652;SDS011;9900;48.738;9.306;2022-08-19T01:40:21;17.70;;;13.60;;
4652;SDS011;9900;48.738;9.306;2022-08-19T01:42:52;16.07;;;13.30;;
4652;SDS011;9900;48.738;9.306;2022-08-19T01:45:23;18.17;;;14.03;;
4652;SDS011;9900;48.738;9.306;2022-08-19T01:47:53;17.03;;;14.17;;
4652;SDS011;9900;48.738;9.306;2022-08-19T01:50:29;18.20;;;14.70;;
4652;SDS011;9900;48.738;9.306;2022-08-19T01:53:01;23.20;;;13.70;;
4652;SDS011;9900;48.738;9.306;2022-08-19T01:55:34;18.63;;;15.60;;
4652;SDS011;9900;48.738;9.306;2022-08-19T01:58:08;16.03;;;12.37;;
4652;SDS011;9900;48.738;9.306;2022-08-19T02:00:40;19.20;;;15.20;;
4652;SDS011;9900;48.738;9.306;2022-08-19T02:03:11;19.50;;;13.80;;
4652;SDS011;9900;48.738;9.306;2022-08-19T02:05:40;19.97;;;15.07;;
4652;SDS011;9900;48.738;9.306;2022-08-19T02:08:11;16.10;;;13.40;;
4652;SDS011;9900;48.738;9.306;2022-08-19T02:10:40;20.37;;;15.00;;
4652;SDS011;9900;48.738;9.306;2022-08-19T02:13:10;16.87;;;14.13;;
4652;SDS011;9900;48.738;9.306;2022-08-19T02:15:40;16.93;;;13.37;;
4652;SDS011;9900;48.738;9.306;2022-08-19T02:18:09;19.00;;;14.70;;
4652;SDS011;9900;48.738;9.306;2022-08-19T02:20:39;17.57;;;14.60;;
4652;SDS011;9900;48.738;9.306;2022-08-19T02:23:11;19.87;;;14.60;;
4652;SDS011;9900;48.738;9.306;2022-08-19T02:25:42;19.43;;;15.23;;
4652;SDS011;9900;48.738;9.306;2022-08-19T02:28:11;18.80;;;15.30;;
4652;SDS011;9900;48.738;9.306;2022-08-19T02:30:45;20.97;;;14.80;;
4652;SDS011;9900;48.738;9.306;2022-08-19T02:33:16;16.40;;;13.80;;
4652;SDS011;9900;48.738;9.306;2022-08-19T02:35:45;21.87;;;16.27;;
4652;SDS011;9900;48.738;9.306;2022-08-19T02:38:16;19.40;;;14.73;;
4652;SDS011;9900;48.738;9.306;2022-08-19T02:40:54;18.37;;;14.23;;
4652;SDS011;9900;48.738;9.306;2022-08-19T02:43:24;22.03;;;15.63;;
4652;SDS011;9900;48.738;9.306;2022-08-19T02:45:54;18.80;;;16.37;;
4652;SDS011;9900;48.738;9.306;2022-08-19T02:48:24;22.47;;;16.33;;
4652;SDS011;9900;48.738;9.306;2022-08-19T02:50:53;21.37;;;16.20;;
4652;SDS011;9900;48.738;9.306;2022-08-19T02:53:25;23.83;;;15.90;;
4652;SDS011;9900;48.738;9.306;2022-08-19T02:55:55;23.40;;;16.00;;
4652;SDS011;9900;48.738;9.306;2022-08-19T02:58:24;19.03;;;15.63;;
4652;SDS011;9900;48.738;9.306;2022-08-19T03:00:54;21.87;;;17.47;;
4652;SDS011;9900;48.738;9.306;2022-08-19T03:03:24;22.73;;;15.90;;
4652;SDS011;9900;48.738;9.306;2022-08-19T03:06:02;25.07;;;16.67;;
4652;SDS011;9900;48.738;9.306;2022-08-19T03:08:37;20.53;;;16.10;;
4652;SDS011;9900;48.738;9.306;2022-08-19T03:11:06;24.07;;;19.03;;
4652;SDS011;9900;48.738;9.306;2022-08-19T03:13:40;21.73;;;17.03;;
4652;SDS011;9900;48.738;9.306;2022-08-19T03:16:10;20.83;;;17.10;;
4652;SDS011;9900;48.738;9.306;2022-08-19T03:18:39;22.37;;;18.00;;
4652;SDS011;9900;48.738;9.306;2022-08-19T03:21:08;30.20;;;17.70;;
4652;SDS011;9900;48.738;9.306;2022-08-19T03:23:40;24.20;;;16.23;;
4652;SDS011;9900;48.738;9.306;2022-08-19T03:26:09;25.47;;;18.30;;
4652;SDS011;9900;48.738;9.306;2022-08-19T03:28:43;22.87;;;16.47;;
4652;SDS011;9900;48.738;9.306;2022-08-19T03:31:18;24.83;;;18.70;;
4652;SDS011;9900;48.738;9.306;2022-08-19T03:34:10;25.97;;;19.20;;
4652;SDS011;9900;48.738;9.306;2022-08-19T03:36:39;23.50;;;18.80;;
4652;SDS011;9900;48.738;9.306;2022-08-19T03:39:10;28.37;;;19.70;;
4652;SDS011;9900;48.738;9.306;2022-08-19T03:41:40;26.47;;;19.53;;
4652;SDS011;9900;48.738;9.306;2022-08-19T03:44:12;26.30;;;19.00;;
4652;SDS011;9900;48.738;9.306;2022-08-19T03:46:45;25.23;;;19.47;;
4652;SDS011;9900;48.738;9.306;2022-08-19T03:49:15;27.43;;;18.23;;
4652;SDS011;9900;48.738;9.306;2022-08-19T03:51:46;21.90;;;17.97;;
4652;SDS011;9900;48.738;9.306;2022-08-19T03:54:18;25.33;;;19.33;;
4652;SDS011;9900;48.738;9.306;2022-08-19T03:56:48;25.10;;;20.00;;
4652;SDS011;9900;48.738;9.306;2022-08-19T03:59:19;26.50;;;19.00;;
4652;SDS011;9900;48.738;9.306;2022-08-19T04:01:52;32.33;;;21.77;;
4652;SDS011;9900;48.738;9.306;2022-08-19T04:04:22;23.77;;;19.10;;
4652;SDS011;9900;48.738;9.306;2022-08-19T04:06:55;31.00;;;21.13;;
4652;SDS011;9900;48.738;9.306;2022-08-19T04:09:26;26.57;;;18.60;;
4652;SDS011;9900;48.738;9.306;2022-08-19T04:11:55;24.87;;;20.20;;
4652;SDS011;9900;48.738;9.306;2022-08-19T04:14:26;25.13;;;17.83;;
4652;SDS011;9900;48.738;9.306;2022-08-19T04:16:57;30.47;;;20.47;;
4652;SDS011;9900;48.738;9.306;2022-08-19T04:19:28;31.67;;;21.70;;
4652;SDS011;9900;48.738;9.306;2022-08-19T04:21:58;29.80;;;21.53;;
4652;SDS011;9900;48.738;9.306;2022-08-19T04:24:29;26.57;;;20.53;;
4652;SDS011;9900;48.738;9.306;2022-08-19T04:26:58;29.10;;;21.30;;
4652;SDS011;9900;48.738;9.306;2022-08-19T04:29:29;24.30;;;19.90;;
4652;SDS011;9900;48.738;9.306;2022-08-19T04:31:58;25.70;;;20.27;;
4652;SDS011;9900;48.738;9.306;2022-08-19T04:34:35;34.30;;;22.50;;
4652;SDS011;9900;48.738;9.306;2022-08-19T04:37:25;28.33;;;19.87;;
4652;SDS011;9900;48.738;9.306;2022-08-19T04:40:05;32.70;;;21.60;;
4652;SDS011;9900;48.738;9.306;2022-08-19T04:42:52;36.70;;;22.63;;
4652;SDS011;9900;48.738;9.306;2022-08-19T04:45:21;32.00;;;22.60;;
4652;SDS011;9900;48.738;9.306;2022-08-19T04:47:53;26.93;;;19.60;;
4652;SDS011;9900;48.738;9.306;2022-08-19T04:50:44;30.13;;;21.10;;
4652;SDS011;9900;48.738;9.306;2022-08-19T04:53:13;30.77;;;20.27;;
4652;SDS011;9900;48.738;9.306;2022-08-19T04:55:43;30.43;;;21.73;;
4652;SDS011;9900;48.738;9.306;2022-08-19T04:58:12;28.23;;;22.00;;
4652;SDS011;9900;48.738;9.306;2022-08-19T05:00:41;29.53;;;21.33;;
4652;SDS011;9900;48.738;9.306;2022-08-19T05:03:10;29.30;;;21.17;;
4652;SDS011;9900;48.738;9.306;2022-08-19T05:05:40;29.07;;;20.83;;
4652;SDS011;9900;48.738;9.306;2022-08-19T05:08:12;25.87;;;20.03;;
4652;SDS011;9900;48.738;9.306;2022-08-19T05:10:43;30.43;;;23.07;;
4652;SDS011;9900;48.738;9.306;2022-08-19T05:13:12;25.97;;;19.67;;
4652;SDS011;9900;48.738;9.306;2022-08-19T05:15:41;26.37;;;20.60;;
4652;SDS011;9900;48.738;9.306;2022-08-19T05:18:10;28.83;;;20.50;;
4652;SDS011;9900;48.738;9.306;2022-08-19T05:20:57;24.95;;;19.92;;
4652;SDS011;9900;48.738;9.306;2022-08-19T05:23:43;29.20;;;22.80;;
4652;SDS011;9900;48.738;9.306;2022-08-19T05:26:13;23.37;;;20.37;;
4652;SDS011;9900;48.738;9.306;2022-08-19T05:28:43;25.63;;;20.37;;
4652;SDS011;9900;48.738;9.306;2022-08-19T05:31:12;27.33;;;20.63;;
4652;SDS011;9900;48.738;9.306;2022-08-19T05:33:41;22.87;;;19.60;;
4652;SDS011;9900;48.738;9.306;2022-08-19T05:36:09;28.40;;;22.00;;
4652;SDS011;9900;48.738;9.306;2022-08-19T05:38:38;25.53;;;20.20;;
4652;SDS011;9900;48.738;9.306;2022-08-19T05:41:07;26.67;;;20.30;;
4652;SDS011;9900;48.738;9.306;2022-08-19T05:43:38;22.77;;;18.40;;
4652;SDS011;9900;48.738;9.306;2022-08-19T05:46:07;27.40;;;20.83;;
4652;SDS011;9900;48.738;9.306;2022-08-19T05:48:37;27.83;;;20.60;;
4652;SDS011;9900;48.738;9.306;2022-08-19T05:51:06;25.33;;;20.80;;
4652;SDS011;9900;48.738;9.306;2022-08-19T05:53:36;29.60;;;21.07;;
4652;SDS011;9900;48.738;9.306;2022-08-19T05:56:05;28.87;;;21.50;;
4652;SDS011;9900;48.738;9.306;2022-08-19T05:58:36;23.83;;;19.17;;
4652;SDS011;9900;48.738;9.306;2022-08-19T06:01:09;28.87;;;21.53;;
4652;SDS011;9900;48.738;9.306;2022-08-19T06:03:39;26.23;;;20.00;;
4652;SDS011;9900;48.738;9.306;2022-08-19T06:06:09;25.43;;;19.70;;
4652;SDS011;9900;48.738;9.306;2022-08-19T06:08:40;30.07;;;22.07;;
4652;SDS011;9900;48.738;9.306;2022-08-19T06:11:14;24.17;;;20.40;;
4652;SDS011;9900;48.738;9.306;2022-08-19T06:13:46;28.23;;;21.23;;
4652;SDS011;9900;48.738;9.306;2022-08-19T06:16:16;34.40;;;21.50;;
4652;SDS011;9900;48.738;9.306;2022-08-19T06:18:49;30.07;;;23.17;;
4652;SDS011;9900;48.738;9.306;2022-08-19T06:21:20;29.73;;;23.30;;
4652;SDS011;9900;48.738;9.306;2022-08-19T06:23:50;32.43;;;22.67;;
4652;SDS011;9900;48.738;9.306;2022-08-19T06:26:20;29.63;;;23.27;;
4652;SDS011;9900;48.738;9.306;2022-08-19T06:28:52;26.50;;;23.40;;
4652;SDS011;9900;48.738;9.306;2022-08-19T06:31:21;35.47;;;22.97;;
4652;SDS011;9900;48.738;9.306;2022-08-19T06:33:52;29.47;;;21.10;;
4652;SDS011;9900;48.738;9.306;2022-08-19T06:36:21;26.50;;;21.03;;
4652;SDS011;9900;48.738;9.306;2022-08-19T06:38:54;28.10;;;20.83;;
4652;SDS011;9900;48.738;9.306;2022-08-19T06:41:25;29.17;;;23.03;;
4652;SDS011;9900;48.738;9.306;2022-08-19T06:43:57;30.90;;;22.97;;
4652;SDS011;9900;48.738;9.306;2022-08-19T06:46:27;29.17;;;22.83;;
4652;SDS011;9900;48.738;9.306;2022-08-19T06:49:01;31.83;;;23.00;;
4652;SDS011;9900;48.738;9.306;2022-08-19T06:51:31;35.10;;;21.33;;
4652;SDS011;9900;48.738;9.306;2022-08-19T06:54:09;36.40;;;23.63;;
4652;SDS011;9900;48.738;9.306;2022-08-19T06:56:46;29.43;;;23.23;;
4652;SDS011;9900;48.738;9.306;2022-08-19T06:59:16;33.27;;;24.23;;
4652;SDS011;9900;48.738;9.306;2022-08-19T07:01:48;30.90;;;22.00;;
4652;SDS011;9900;48.738;9.306;2022-08-19T07:04:18;31.60;;;21.37;;
4652;SDS011;9900;48.738;9.306;2022-08-19T07:06:48;32.07;;;23.30;;
4652;SDS011;9900;48.738;9.306;2022-08-19T07:09:21;32.53;;;24.23;;
4652;SDS011;9900;48.738;9.306;2022-08-19T07:11:51;34.33;;;23.53;;
4652;SDS011;9900;48.738;9.306;2022-08-19T07:14:23;33.40;;;23.83;;
4652;SDS011;9900;48.738;9.306;2022-08-19T07:16:54;33.97;;;25.70;;
4652;SDS011;9900;48.738;9.306;2022-08-19T07:19:25;33.03;;;24.03;;
4652;SDS011;9900;48.738;9.306;2022-08-19T07:21:54;35.00;;;26.43;;
4652;SDS011;9900;48.738;9.306;2022-08-19T07:24:24;37.83;;;26.43;;
4652;SDS011;9900;48.738;9.306;2022-08-19T07:26:58;33.43;;;25.70;;
4652;SDS011;9900;48.738;9.306;2022-08-19T07:29:34;30.93;;;24.20;;
4652;SDS011;9900;48.738;9.306;2022-08-19T07:32:04;32.53;;;24.30;;
4652;SDS011;9900;48.738;9.306;2022-08-19T07:34:39;33.43;;;24.53;;
4652;SDS011;9900;48.738;9.306;2022-08-19T07:37:09;33.40;;;26.00;;
4652;SDS011;9900;48.738;9.306;2022-08-19T07:39:38;33.23;;;24.97;;
4652;SDS011;9900;48.738;9.306;2022-08-19T07:42:08;34.83;;;26.50;;
4652;SDS011;9900;48.738;9.306;2022-08-19T07:44:41;36.47;;;27.03;;
4652;SDS011;9900;48.738;9.306;2022-08-19T07:47:17;36.87;;;27.23;;
4652;SDS011;9900;48.738;9.306;2022-08-19T07:50:07;34.90;;;27.10;;
4652;SDS011;9900;48.738;9.306;2022-08-19T07:52:38;34.33;;;25.40;;
4652;SDS011;9900;48.738;9.306;2022-08-19T07:55:08;46.23;;;29.67;;
4652;SDS011;9900;48.738;9.306;2022-08-19T07:57:58;38.00;;;27.13;;
4652;SDS011;9900;48.738;9.306;2022-08-19T08:00:30;33.23;;;25.70;;
4652;SDS011;9900;48.738;9.306;2022-08-19T08:02:59;34.90;;;25.60;;
4652;SDS011;9900;48.738;9.306;2022-08-19T08:05:28;33.70;;;26.57;;
4652;SDS011;9900;48.738;9.306;2022-08-19T08:08:15;38.20;;;26.30;;
4652;SDS011;9900;48.738;9.306;2022-08-19T08:10:58;33.57;;;26.60;;
4652;SDS011;9900;48.738;9.306;2022-08-19T08:13:27;35.17;;;27.63;;
4652;SDS011;9900;48.738;9.306;2022-08-19T08:15:58;31.80;;;24.40;;
4652;SDS011;9900;48.738;9.306;2022-08-19T08:18:27;36.13;;;24.53;;
4652;SDS011;9900;48.738;9.306;2022-08-19T08:20:57;36.17;;;24.53;;
4652;SDS011;9900;48.738;9.306;2022-08-19T08:23:27;32.13;;;25.00;;
4652;SDS011;9900;48.738;9.306;2022-08-19T08:25:57;31.10;;;25.00;;
4652;SDS011;9900;48.738;9.306;2022-08-19T08:28:28;36.50;;;27.87;;
4652;SDS011;9900;48.738;9.306;2022-08-19T08:30:58;32.00;;;25.17;;
4652;SDS011;9900;48.738;9.306;2022-08-19T08:33:27;30.60;;;24.17;;
4652;SDS011;9900;48.738;9.306;2022-08-19T08:36:01;31.10;;;24.07;;
4652;SDS011;9900;48.738;9.306;2022-08-19T08:38:31;30.90;;;24.47;;
4652;SDS011;9900;48.738;9.306;2022-08-19T08:41:09;32.57;;;24.90;;
4652;SDS011;9900;48.738;9.306;2022-08-19T08:43:47;32.00;;;24.43;;
4652;SDS011;9900;48.738;9.306;2022-08-19T08:46:22;34.33;;;23.93;;
4652;SDS011;9900;48.738;9.306;2022-08-19T08:48:59;30.03;;;23.97;;
4652;SDS011;9900;48.738;9.306;2022-08-19T08:51:37;27.17;;;22.20;;
4652;SDS011;9900;48.738;9.306;2022-08-19T08:54:15;29.97;;;22.50;;
4652;SDS011;9900;48.738;9.306;2022-08-19T08:56:47;33.20;;;25.40;;
4652;SDS011;9900;48.738;9.306;2022-08-19T08:59:19;31.37;;;24.00;;
4652;SDS011;9900;48.738;9.306;2022-08-19T09:01:51;35.70;;;24.53;;
4652;SDS011;9900;48.738;9.306;2022-08-19T09:04:20;30.07;;;22.47;;
4652;SDS011;9900;48.738;9.306;2022-08-19T09:06:51;31.17;;;22.93;;
4652;SDS011;9900;48.738;9.306;2022-08-19T09:09:25;33.23;;;23.77;;
4652;SDS011;9900;48.738;9.306;2022-08-19T09:12:02;33.30;;;25.00;;
4652;SDS011;9900;48.738;9.306;2022-08-19T09:14:40;28.87;;;23.03;;
4652;SDS011;9900;48.738;9.306;2022-08-19T09:17:20;31.17;;;24.60;;
4652;SDS011;9900;48.738;9.306;2022-08-19T09:19:56;29.90;;;22.90;;
4652;SDS011;9900;48.738;9.306;2022-08-19T09:22:31;32.83;;;22.53;;
4652;SDS011;9900;48.738;9.306;2022-08-19T09:25:00;28.90;;;23.87;;
4652;SDS011;9900;48.738;9.306;2022-08-19T09:27:30;28.90;;;22.00;;
4652;SDS011;9900;48.738;9.306;2022-08-19T09:30:11;31.53;;;25.30;;
4652;SDS011;9900;48.738;9.306;2022-08-19T09:32:44;28.37;;;21.83;;
4652;SDS011;9900;48.738;9.306;2022-08-19T09:35:19;29.17;;;22.63;;
4652;SDS011;9900;48.738;9.306;2022-08-19T09:37:50;31.83;;;22.77;;
4652;SDS011;9900;48.738;9.306;2022-08-19T09:40:26;31.97;;;24.13;;
4652;SDS011;9900;48.738;9.306;2022-08-19T09:42:57;35.03;;;23.00;;
4652;SDS011;9900;48.738;9.306;2022-08-19T09:45:37;27.30;;;22.47;;
4652;SDS011;9900;48.738;9.306;2022-08-19T09:48:07;29.53;;;21.87;;
4652;SDS011;9900;48.738;9.306;2022-08-19T09:50:45;31.50;;;24.33;;
4652;SDS011;9900;48.738;9.306;2022-08-19T09:53:18;33.23;;;23.70;;
4652;SDS011;9900;48.738;9.306;2022-08-19T09:55:51;29.27;;;23.43;;
4652;SDS011;9900;48.738;9.306;2022-08-19T09:58:20;28.40;;;22.50;;
4652;SDS011;9900;48.738;9.306;2022-08-19T10:00:53;28.40;;;22.47;;
4652;SDS011;9900;48.738;9.306;2022-08-19T10:03:24;28.77;;;22.80;;
4652;SDS011;9900;48.738;9.306;2022-08-19T10:05:57;30.37;;;23.80;;
4652;SDS011;9900;48.738;9.306;2022-08-19T10:08:28;27.00;;;21.90;;
4652;SDS011;9900;48.738;9.306;2022-08-19T10:10:58;27.90;;;21.60;;
4652;SDS011;9900;48.738;9.306;2022-08-19T10:13:48;28.53;;;22.90;;
4652;SDS011;9900;48.738;9.306;2022-08-19T10:16:19;31.00;;;23.93;;
4652;SDS011;9900;48.738;9.306;2022-08-19T10:18:57;25.50;;;21.60;;
4652;SDS011;9900;48.738;9.306;2022-08-19T10:21:30;32.03;;;22.50;;
4652;SDS011;9900;48.738;9.306;2022-08-19T10:24:02;29.33;;;22.40;;
4652;SDS011;9900;48.738;9.306;2022-08-19T10:26:36;29.13;;;22.27;;
4652;SDS011;9900;48.738;9.306;2022-08-19T10:29:06;29.67;;;23.80;;
4652;SDS011;9900;48.738;9.306;2022-08-19T10:31:35;30.87;;;24.50;;
4652;SDS011;9900;48.738;9.306;2022-08-19T10:34:26;30.67;;;25.80;;
4652;SDS011;9900;48.738;9.306;2022-08-19T10:36:56;34.90;;;24.63;;
4652;SDS011;9900;48.738;9.306;2022-08-19T10:39:28;29.90;;;23.87;;
4652;SDS011;9900;48.738;9.306;2022-08-19T10:41:59;32.43;;;24.47;;
4652;SDS011;9900;48.738;9.306;2022-08-19T10:44:32;43.63;;;27.63;;
4652;SDS011;9900;48.738;9.306;2022-08-19T10:47:02;33.13;;;25.13;;
4652;SDS011;9900;48.738;9.306;2022-08-19T10:49:53;32.13;;;25.73;;
4652;SDS011;9900;48.738;9.306;2022-08-19T10:52:41;33.37;;;23.67;;
4652;SDS011;9900;48.738;9.306;2022-08-19T10:55:17;33.80;;;25.60;;
4652;SDS011;9900;48.738;9.306;2022-08-19T10:58:09;30.33;;;24.03;;
4652;SDS011;9900;48.738;9.306;2022-08-19T11:00:39;34.47;;;25.97;;
4652;SDS011;9900;48.738;9.306;2022-08-19T11:03:09;31.90;;;24.00;;
4652;SDS011;9900;48.738;9.306;2022-08-19T11:05:39;27.83;;;22.40;;
4652;SDS011;9900;48.738;9.306;2022-08-19T11:08:08;28.57;;;22.80;;
4652;SDS011;9900;48.738;9.306;2022-08-19T11:10:50;33.27;;;25.77;;
4652;SDS011;9900;48.738;9.306;2022-08-19T11:13:26;36.93;;;25.43;;
4652;SDS011;9900;48.738;9.306;2022-08-19T11:15:56;37.60;;;26.60;;
4652;SDS011;9900;48.738;9.306;2022-08-19T11:18:33;34.30;;;26.67;;
4652;SDS011;9900;48.738;9.306;2022-08-19T11:21:09;34.40;;;27.20;;
4652;SDS011;9900;48.738;9.306;2022-08-19T11:23:39;42.10;;;27.37;;
4652;SDS011;9900;48.738;9.306;2022-08-19T11:26:08;33.77;;;27.03;;
4652;SDS011;9900;48.738;9.306;2022-08-19T11:28:37;38.57;;;29.30;;
4652;SDS011;9900;48.738;9.306;2022-08-19T11:31:09;39.80;;;27.60;;
4652;SDS011;9900;48.738;9.306;2022-08-19T11:33:39;34.33;;;26.60;;
4652;SDS011;9900;48.738;9.306;2022-08-19T11:36:15;34.30;;;26.10;;
4652;SDS011;9900;48.738;9.306;2022-08-19T11:38:44;36.93;;;26.67;;
4652;SDS011;9900;48.738;9.306;2022-08-19T11:41:16;38.70;;;28.63;;
4652;SDS011;9900;48.738;9.306;2022-08-19T11:43:46;41.63;;;28.50;;
4652;SDS011;9900;48.738;9.306;2022-08-19T11:46:15;39.23;;;29.07;;
4652;SDS011;9900;48.738;9.306;2022-08-19T11:48:45;39.90;;;28.27;;
4652;SDS011;9900;48.738;9.306;2022-08-19T11:51:17;35.33;;;27.27;;
4652;SDS011;9900;48.738;9.306;2022-08-19T11:53:48;33.00;;;26.17;;
4652;SDS011;9900;48.738;9.306;2022-08-19T11:56:18;33.90;;;27.70;;
4652;SDS011;9900;48.738;9.306;2022-08-19T11:58:47;39.93;;;28.03;;
4652;SDS011;9900;48.738;9.306;2022-08-19T12:01:17;35.60;;;25.90;;
4652;SDS011;9900;48.738;9.306;2022-08-19T12:03:48;38.40;;;30.80;;
4652;SDS011;9900;48.738;9.306;2022-08-19T12:06:20;36.83;;;27.20;;
4652;SDS011;9900;48.738;9.306;2022-08-19T12:08:52;35.73;;;27.73;;
4652;SDS011;9900;48.738;9.306;2022-08-19T12:11:22;46.53;;;29.87;;
4652;SDS011;9900;48.738;9.306;2022-08-19T12:13:51;40.53;;;27.53;;
4652;SDS011;9900;48.738;9.306;2022-08-19T12:16:22;38.53;;;28.63;;
4652;SDS011;9900;48.738;9.306;2022-08-19T12:18:53;41.17;;;28.83;;
4652;SDS011;9900;48.738;9.306;2022-08-19T12:21:24;38.97;;;29.10;;
4652;SDS011;9900;48.738;9.306;2022-08-19T12:23:56;45.93;;;30.43;;
4652;SDS011;9900;48.738;9.306;2022-08-19T12:26:26;40.23;;;28.60;;
4652;SDS011;9900;48.738;9.306;2022-08-19T12:28:56;42.47;;;30.90;;
4652;SDS011;9900;48.738;9.306;2022-08-19T12:31:26;37.30;;;29.30;;
4652;SDS011;9900;48.738;9.306;2022-08-19T12:33:56;40.03;;;28.00;;
4652;SDS011;9900;48.738;9.306;2022-08-19T12:36:26;44.73;;;31.17;;
4652;SDS011;9900;48.738;9.306;2022-08-19T12:38:57;35.40;;;30.50;;
4652;SDS011;9900;48.738;9.306;2022-08-19T12:41:26;41.33;;;30.20;;
4652;SDS011;9900;48.738;9.306;2022-08-19T12:43:55;38.70;;;28.03;;
4652;SDS011;9900;48.738;9.306;2022-08-19T12:46:25;42.90;;;30.37;;
4652;SDS011;9900;48.738;9.306;2022-08-19T12:48:54;37.00;;;28.43;;
4652;SDS011;9900;48.738;9.306;2022-08-19T12:51:23;35.50;;;28.23;;
4652;SDS011;9900;48.738;9.306;2022-08-19T12:53:53;33.80;;;26.50;;
4652;SDS011;9900;48.738;9.306;2022-08-19T12:56:22;32.77;;;26.60;;
4652;SDS011;9900;48.738;9.306;2022-08-19T12:58:51;35.70;;;27.53;;
4652;SDS011;9900;48.738;9.306;2022-08-19T13:01:20;34.77;;;26.70;;
4652;SDS011;9900;48.738;9.306;2022-08-19T13:03:49;39.40;;;27.50;;
4652;SDS011;9900;48.738;9.306;2022-08-19T13:06:20;41.30;;;26.63;;
4652;SDS011;9900;48.738;9.306;2022-08-19T13:08:49;41.83;;;29.33;;
4652;SDS011;9900;48.738;9.306;2022-08-19T13:11:25;42.27;;;28.00;;
4652;SDS011;9900;48.738;9.306;2022-08-19T13:13:54;31.67;;;25.67;;
4652;SDS011;9900;48.738;9.306;2022-08-19T13:16:23;35.90;;;27.50;;
4652;SDS011;9900;48.738;9.306;2022-08-19T13:18:54;37.33;;;29.47;;
4652;SDS011;9900;48.738;9.306;2022-08-19T13:21:26;38.13;;;30.00;;
4652;SDS011;9900;48.738;9.306;2022-08-19T13:23:57;38.83;;;28.73;;
4652;SDS011;9900;48.738;9.306;2022-08-19T13:26:27;36.67;;;29.07;;
4652;SDS011;9900;48.738;9.306;2022-08-19T13:28:56;38.93;;;27.43;;
4652;SDS011;9900;48.738;9.306;2022-08-19T13:31:42;41.17;;;30.27;;
4652;SDS011;9900;48.738;9.306;2022-08-19T13:34:30;37.40;;;29.10;;
4652;SDS011;9900;48.738;9.306;2022-08-19T13:37:01;40.03;;;28.50;;
4652;SDS011;9900;48.738;9.306;2022-08-19T13:39:31;39.23;;;28.90;;
4652;SDS011;9900;48.738;9.306;2022-08-19T13:42:02;40.90;;;31.53;;
4652;SDS011;9900;48.738;9.306;2022-08-19T13:44:32;39.27;;;31.13;;
4652;SDS011;9900;48.738;9.306;2022-08-19T13:47:01;41.90;;;30.33;;
4652;SDS011;9900;48.738;9.306;2022-08-19T13:49:33;42.60;;;31.83;;
4652;SDS011;9900;48.738;9.306;2022-08-19T13:52:03;43.00;;;29.20;;
4652;SDS011;9900;48.738;9.306;2022-08-19T13:54:32;40.53;;;30.73;;
4652;SDS011;9900;48.738;9.306;2022-08-19T13:57:03;39.07;;;30.17;;
4652;SDS011;9900;48.738;9.306;2022-08-19T13:59:32;38.77;;;29.80;;
4652;SDS011;9900;48.738;9.306;2022-08-19T14:02:01;42.83;;;31.43;;
4652;SDS011;9900;48.738;9.306;2022-08-19T14:04:29;38.50;;;29.67;;
4652;SDS011;9900;48.738;9.306;2022-08-19T14:06:58;41.50;;;30.90;;
4652;SDS011;9900;48.738;9.306;2022-08-19T14:09:27;41.60;;;30.57;;
4652;SDS011;9900;48.738;9.306;2022-08-19T14:11:56;43.50;;;33.00;;
4652;SDS011;9900;48.738;9.306;2022-08-19T14:14:27;43.80;;;32.80;;
4652;SDS011;9900;48.738;9.306;2022-08-19T14:16:56;36.30;;;27.90;;
4652;SDS011;9900;48.738;9.306;2022-08-19T14:19:25;39.63;;;29.90;;
4652;SDS011;9900;48.738;9.306;2022-08-19T14:21:56;41.47;;;30.27;;
4652;SDS011;9900;48.738;9.306;2022-08-19T14:24:25;42.23;;;31.70;;
4652;SDS011;9900;48.738;9.306;2022-08-19T14:26:54;42.23;;;30.40;;
4652;SDS011;9900;48.738;9.306;2022-08-19T14:29:23;38.20;;;29.47;;
4652;SDS011;9900;48.738;9.306;2022-08-19T14:31:54;42.40;;;31.57;;
4652;SDS011;9900;48.738;9.306;2022-08-19T14:34:23;36.87;;;29.77;;
4652;SDS011;9900;48.738;9.306;2022-08-19T14:36:52;34.10;;;28.07;;
4652;SDS011;9900;48.738;9.306;2022-08-19T14:39:21;38.20;;;29.57;;
4652;SDS011;9900;48.738;9.306;2022-08-19T14:41:49;36.57;;;29.57;;
4652;SDS011;9900;48.738;9.306;2022-08-19T14:44:19;39.73;;;28.00;;
4652;SDS011;9900;48.738;9.306;2022-08-19T14:46:48;33.47;;;27.47;;
4652;SDS011;9900;48.738;9.306;2022-08-19T14:49:18;36.60;;;27.40;;
4652;SDS011;9900;48.738;9.306;2022-08-19T14:52:00;34.50;;;26.07;;
4652;SDS011;9900;48.738;9.306;2022-08-19T14:54:30;32.90;;;25.60;;
4652;SDS011;9900;48.738;9.306;2022-08-19T14:56:59;34.30;;;26.10;;
4652;SDS011;9900;48.738;9.306;2022-08-19T14:59:27;32.03;;;26.60;;
4652;SDS011;9900;48.738;9.306;2022-08-19T15:01:56;30.80;;;25.07;;
4652;SDS011;9900;48.738;9.306;2022-08-19T15:04:48;31.90;;;25.20;;
4652;SDS011;9900;48.738;9.306;2022-08-19T15:07:24;34.40;;;24.30;;
4652;SDS011;9900;48.738;9.306;2022-08-19T15:09:56;30.17;;;25.00;;
4652;SDS011;9900;48.738;9.306;2022-08-19T15:12:25;35.83;;;26.30;;
4652;SDS011;9900;48.738;9.306;2022-08-19T15:14:54;35.63;;;28.70;;
4652;SDS011;9900;48.738;9.306;2022-08-19T15:17:23;28.50;;;25.20;;